createdAt,value
2022-10-22T00:01:13.063Z,46.25
2022-10-22T00:03:41.078Z,63.03
2022-10-22T00:06:09.256Z,61.27
2022-10-22T00:08:38.688Z,51.92
2022-10-22T00:11:12.246Z,53.67
2022-10-22T00:13:40.470Z,45.27
2022-10-22T00:16:09.206Z,40.17
2022-10-22T00:18:37.626Z,49.90
2022-10-22T00:21:06.924Z,45.92
2022-10-22T00:23:35.345Z,46.87
2022-10-22T00:26:07.336Z,48.53
2022-10-22T00:28:35.194Z,47.63
2022-10-22T00:31:04.067Z,41.47
2022-10-22T00:33:32.095Z,38.88
2022-10-22T00:36:01.211Z,43.80
2022-10-22T00:38:31.480Z,41.75
2022-10-22T00:40:59.334Z,51.30
2022-10-22T00:43:28.396Z,84.33
2022-10-22T00:45:56.374Z,41.90
2022-10-22T00:48:29.642Z,44.27
2022-10-22T00:51:02.902Z,41.50
2022-10-22T00:53:37.288Z,42.90
2022-10-22T00:56:06.554Z,50.13
2022-10-22T00:58:43.594Z,44.47
2022-10-22T01:01:21.421Z,50.00
2022-10-22T01:03:50.489Z,54.47
2022-10-22T01:06:26.098Z,43.97
2022-10-22T01:09:09.705Z,41.10
2022-10-22T01:11:56.760Z,33.07
2022-10-22T01:14:41.466Z,36.47
2022-10-22T01:20:10.193Z,41.37
2022-10-22T01:22:45.849Z,35.70
2022-10-22T01:25:30.980Z,37.30
2022-10-22T01:28:17.626Z,34.10
2022-10-22T01:30:53.150Z,35.13
2022-10-22T01:35:53.709Z,42.80
2022-10-22T01:38:25.135Z,43.70
2022-10-22T01:40:55.830Z,35.97
2022-10-22T01:43:23.820Z,45.33
2022-10-22T01:46:00.193Z,34.40
2022-10-22T01:48:47.884Z,36.17
2022-10-22T01:51:40.829Z,38.60
2022-10-22T01:54:25.377Z,35.13
2022-10-22T01:57:08.762Z,42.43
2022-10-22T01:59:51.456Z,51.57
2022-10-22T02:02:36.733Z,63.17
2022-10-22T02:05:13.681Z,53.88
2022-10-22T02:07:48.368Z,39.70
2022-10-22T02:10:19.146Z,51.08
2022-10-22T02:12:53.364Z,52.70
2022-10-22T02:15:25.608Z,60.13
2022-10-22T02:18:00.681Z,61.03
2022-10-22T02:20:33.118Z,40.03
2022-10-22T02:23:03.702Z,37.67
2022-10-22T02:25:37.360Z,39.47
2022-10-22T02:28:14.440Z,52.73
2022-10-22T02:30:51.836Z,61.80
2022-10-22T02:33:27.250Z,74.47
2022-10-22T02:35:57.508Z,39.42
2022-10-22T02:38:28.334Z,50.10
2022-10-22T02:40:56.480Z,44.70
2022-10-22T02:43:25.449Z,50.87
2022-10-22T02:45:53.396Z,62.03
2022-10-22T02:48:22.600Z,61.67
2022-10-22T02:50:50.360Z,38.97
2022-10-22T02:53:18.144Z,37.47
2022-10-22T02:55:46.303Z,49.80
2022-10-22T02:58:14.172Z,48.07
2022-10-22T03:00:42.209Z,57.93
2022-10-22T03:03:10.001Z,53.77
2022-10-22T03:05:39.103Z,53.13
2022-10-22T03:08:06.871Z,44.27
2022-10-22T03:10:34.921Z,41.93
2022-10-22T03:13:03.413Z,45.43
2022-10-22T03:15:31.451Z,42.73
2022-10-22T03:17:59.182Z,51.60
2022-10-22T03:20:27.565Z,54.70
2022-10-22T03:22:58.029Z,45.37
2022-10-22T03:25:28.421Z,46.43
2022-10-22T03:28:04.490Z,45.27
2022-10-22T03:30:32.504Z,55.90
2022-10-22T03:33:00.294Z,69.73
2022-10-22T03:35:28.275Z,41.87
2022-10-22T03:38:01.105Z,39.00
2022-10-22T03:40:29.326Z,63.10
2022-10-22T03:42:58.576Z,60.33
2022-10-22T03:45:26.517Z,56.73
2022-10-22T03:47:54.391Z,57.13
2022-10-22T03:50:22.151Z,49.03
2022-10-22T03:52:49.880Z,45.30
2022-10-22T03:55:19.280Z,55.93
2022-10-22T03:57:47.015Z,49.17
2022-10-22T04:00:15.399Z,59.40
2022-10-22T04:02:43.180Z,37.63
2022-10-22T04:05:12.062Z,42.00
2022-10-22T04:07:40.078Z,59.60
2022-10-22T04:10:09.117Z,40.93
2022-10-22T04:12:38.238Z,47.87
2022-10-22T04:15:07.676Z,56.43
2022-10-22T04:17:36.654Z,45.57
2022-10-22T04:20:06.126Z,54.27
2022-10-22T04:22:34.753Z,60.73
2022-10-22T04:25:04.340Z,57.93
2022-10-22T04:27:33.272Z,41.50
2022-10-22T04:30:02.902Z,46.27
2022-10-22T04:32:30.867Z,57.33
2022-10-22T04:34:58.580Z,48.67
2022-10-22T04:37:26.370Z,87.37
2022-10-22T04:39:54.095Z,125.97
2022-10-22T04:42:21.817Z,54.80
2022-10-22T04:44:49.742Z,58.83
2022-10-22T04:47:19.061Z,80.20
2022-10-22T04:49:46.791Z,79.17
2022-10-22T04:52:14.572Z,117.97
2022-10-22T04:54:42.280Z,80.27
2022-10-22T04:57:10.004Z,56.37
2022-10-22T04:59:37.932Z,49.73
2022-10-22T05:02:05.777Z,71.23
2022-10-22T05:04:34.904Z,57.60
2022-10-22T05:07:02.749Z,85.33
2022-10-22T05:09:30.549Z,60.07
2022-10-22T05:11:58.286Z,81.60
2022-10-22T05:14:26.245Z,73.53
2022-10-22T05:16:54.950Z,85.87
2022-10-22T05:19:26.291Z,87.53
2022-10-22T05:21:58.532Z,66.30
2022-10-22T05:24:29.173Z,97.67
2022-10-22T05:26:59.584Z,118.73
2022-10-22T05:29:28.238Z,97.77
2022-10-22T05:31:56.861Z,76.83
2022-10-22T05:34:24.591Z,67.67
2022-10-22T05:36:52.294Z,119.97
2022-10-22T05:39:21.401Z,119.37
2022-10-22T05:41:49.149Z,102.60
2022-10-22T05:44:16.868Z,120.77
2022-10-22T05:46:44.802Z,166.50
2022-10-22T05:49:15.580Z,125.73
2022-10-22T05:51:43.500Z,116.70
2022-10-22T05:54:18.110Z,152.63
2022-10-22T05:56:47.351Z,93.57
2022-10-22T05:59:15.164Z,155.73
2022-10-22T06:01:43.060Z,100.17
2022-10-22T06:04:13.333Z,107.70
2022-10-22T06:06:44.935Z,85.00
2022-10-22T06:09:18.376Z,82.23
2022-10-22T06:11:48.943Z,87.63
2022-10-22T06:14:18.773Z,82.10
2022-10-22T06:16:47.500Z,90.90
2022-10-22T06:19:18.154Z,86.50
2022-10-22T06:21:47.090Z,86.77
2022-10-22T06:24:15.664Z,88.10
2022-10-22T06:26:43.777Z,103.57
2022-10-22T06:29:12.905Z,79.90
2022-10-22T06:31:41.732Z,84.37
2022-10-22T06:34:13.958Z,62.60
2022-10-22T06:36:43.946Z,70.53
2022-10-22T06:39:13.675Z,61.97
2022-10-22T06:41:41.745Z,73.97
2022-10-22T06:44:15.060Z,61.50
2022-10-22T06:46:43.609Z,60.93
2022-10-22T06:49:14.632Z,65.47
2022-10-22T06:51:42.516Z,56.33
2022-10-22T06:54:11.077Z,58.67
2022-10-22T06:56:38.876Z,60.13
2022-10-22T06:59:06.697Z,50.23
2022-10-22T07:01:36.508Z,54.33
2022-10-22T07:04:05.892Z,47.03
2022-10-22T07:06:34.092Z,45.77
2022-10-22T07:09:02.471Z,47.97
2022-10-22T07:11:38.893Z,60.43
2022-10-22T07:14:06.680Z,45.15
2022-10-22T07:16:36.352Z,41.50
2022-10-22T07:19:05.242Z,39.40
2022-10-22T07:21:33.108Z,45.60
2022-10-22T07:24:01.129Z,43.27
2022-10-22T07:26:31.032Z,41.03
2022-10-22T07:28:59.899Z,43.17
2022-10-22T07:31:28.317Z,41.58
2022-10-22T07:33:58.136Z,33.65
2022-10-22T07:36:26.004Z,35.22
2022-10-22T07:38:57.207Z,38.63
2022-10-22T07:41:26.440Z,33.63
2022-10-22T07:43:55.834Z,40.15
2022-10-22T07:46:24.702Z,38.50
2022-10-22T07:48:52.567Z,37.95
2022-10-22T07:51:21.820Z,38.88
2022-10-22T07:53:49.592Z,36.75
2022-10-22T07:56:17.636Z,26.67
2022-10-22T07:58:45.411Z,30.65
2022-10-22T08:01:13.227Z,27.65
2022-10-22T08:03:41.009Z,26.38
2022-10-22T08:06:12.632Z,28.95
2022-10-22T08:08:43.327Z,26.95
2022-10-22T08:11:12.740Z,27.23
2022-10-22T08:13:45.373Z,29.52
2022-10-22T08:16:14.733Z,27.55
2022-10-22T08:18:43.241Z,22.95
2022-10-22T08:21:11.372Z,25.20
2022-10-22T08:23:40.645Z,23.45
2022-10-22T08:26:09.094Z,21.65
2022-10-22T08:28:37.739Z,23.80
2022-10-22T08:31:07.286Z,21.30
2022-10-22T08:33:35.208Z,24.83
2022-10-22T08:36:03.382Z,21.65
2022-10-22T08:38:32.542Z,20.38
2022-10-22T08:41:11.498Z,19.83
2022-10-22T08:44:24.257Z,18.17
2022-10-22T08:47:21.397Z,19.80
2022-10-22T08:49:52.743Z,18.10
2022-10-22T08:52:21.720Z,17.45
2022-10-22T08:54:54.566Z,15.30
2022-10-22T08:57:53.897Z,18.33
2022-10-22T09:00:30.977Z,14.63
2022-10-22T09:03:26.974Z,16.40
2022-10-22T09:06:05.277Z,16.15
2022-10-22T09:08:35.245Z,14.30
2022-10-22T09:11:15.766Z,20.17
2022-10-22T09:13:46.813Z,15.60
2022-10-22T09:16:18.915Z,13.23
2022-10-22T09:19:05.804Z,15.23
2022-10-22T09:21:51.766Z,13.00
2022-10-22T09:24:33.499Z,15.63
2022-10-22T09:27:05.332Z,13.95
2022-10-22T09:29:34.787Z,10.88
2022-10-22T09:32:03.523Z,11.10
2022-10-22T09:34:32.427Z,9.43
2022-10-22T09:37:03.516Z,9.40
2022-10-22T09:39:37.039Z,8.70
2022-10-22T09:42:05.771Z,9.80
2022-10-22T09:44:38.281Z,11.95
2022-10-22T09:47:07.060Z,9.43
2022-10-22T09:49:36.652Z,8.55
2022-10-22T09:52:28.783Z,8.70
2022-10-22T09:54:57.302Z,7.88
2022-10-22T09:57:27.458Z,8.88
2022-10-22T09:59:57.638Z,7.05
2022-10-22T10:02:44.441Z,8.00
2022-10-22T10:05:27.951Z,9.07
2022-10-22T10:07:58.053Z,10.68
2022-10-22T10:10:36.961Z,7.32
2022-10-22T10:13:30.294Z,8.43
2022-10-22T10:16:11.897Z,8.02
2022-10-22T10:19:02.783Z,8.77
2022-10-22T10:21:46.052Z,8.35
2022-10-22T10:24:28.871Z,8.55
2022-10-22T10:27:05.091Z,8.90
2022-10-22T10:29:49.495Z,9.15
2022-10-22T10:32:40.980Z,12.00
2022-10-22T10:35:23.802Z,15.73
2022-10-22T10:38:09.199Z,13.38
2022-10-22T10:40:48.679Z,10.55
2022-10-22T10:43:29.857Z,11.93
2022-10-22T10:46:12.190Z,9.70
2022-10-22T10:48:54.200Z,8.30
2022-10-22T10:51:41.439Z,8.38
2022-10-22T10:54:27.670Z,11.38
2022-10-22T10:57:00.532Z,17.60
2022-10-22T10:59:49.470Z,15.80
2022-10-22T11:02:52.169Z,11.27
2022-10-22T11:05:32.180Z,16.05
2022-10-22T11:08:09.600Z,9.82
2022-10-22T11:10:44.821Z,18.50
2022-10-22T11:16:00.114Z,5.97
2022-10-22T11:18:37.915Z,11.02
2022-10-22T11:21:26.995Z,12.35
2022-10-22T11:24:04.965Z,9.07
2022-10-22T11:26:44.334Z,10.43
2022-10-22T11:29:21.218Z,6.75
2022-10-22T11:31:51.203Z,8.77
2022-10-22T11:34:39.894Z,8.77
2022-10-22T11:37:12.763Z,9.98
2022-10-22T11:39:47.738Z,9.95
2022-10-22T11:42:21.471Z,9.13
2022-10-22T11:45:00.927Z,9.77
2022-10-22T11:47:33.178Z,7.10
2022-10-22T11:50:20.293Z,9.85
2022-10-22T11:53:02.540Z,15.40
2022-10-22T11:55:51.693Z,9.65
2022-10-22T11:58:42.424Z,8.73
2022-10-22T12:01:27.153Z,11.50
2022-10-22T12:04:20.384Z,7.15
2022-10-22T12:06:58.109Z,7.55
2022-10-22T12:09:32.437Z,8.32
2022-10-22T12:12:14.613Z,7.07
2022-10-22T12:14:55.002Z,11.02
2022-10-22T12:17:25.024Z,9.30
2022-10-22T12:20:02.758Z,12.18
2022-10-22T12:22:37.286Z,6.25
2022-10-22T12:25:19.970Z,8.00
2022-10-22T12:27:53.340Z,8.65
2022-10-22T12:30:25.222Z,9.13
2022-10-22T12:32:56.325Z,9.13
2022-10-22T12:35:26.282Z,9.15
2022-10-22T12:37:57.159Z,7.82
2022-10-22T12:40:29.416Z,7.43
2022-10-22T12:43:00.465Z,6.90
2022-10-22T12:45:32.838Z,7.03
2022-10-22T12:48:05.452Z,8.27
2022-10-22T12:50:40.309Z,8.05
2022-10-22T12:53:16.990Z,5.88
2022-10-22T12:55:50.843Z,7.47
2022-10-22T12:58:22.630Z,7.65
2022-10-22T13:00:57.347Z,7.63
2022-10-22T13:03:32.210Z,6.00
2022-10-22T13:06:14.201Z,9.10
2022-10-22T13:08:43.409Z,7.28
2022-10-22T13:11:13.582Z,9.30
2022-10-22T13:13:45.481Z,8.82
2022-10-22T13:16:17.136Z,7.80
2022-10-22T13:18:46.377Z,9.73
2022-10-22T13:21:33.349Z,8.68
2022-10-22T13:24:18.705Z,10.07
2022-10-22T13:26:54.146Z,11.38
2022-10-22T13:29:24.109Z,8.13
2022-10-22T13:31:53.897Z,8.07
2022-10-22T13:34:25.808Z,8.95
2022-10-22T13:36:53.690Z,7.95
2022-10-22T13:39:24.618Z,5.85
2022-10-22T13:41:53.780Z,8.98
2022-10-22T13:44:21.669Z,6.10
2022-10-22T13:46:49.635Z,8.85
2022-10-22T13:49:23.273Z,8.50
2022-10-22T13:51:51.586Z,6.50
2022-10-22T13:54:23.716Z,4.97
2022-10-22T13:56:53.772Z,5.70
2022-10-22T13:59:23.863Z,7.05
2022-10-22T14:01:54.684Z,5.93
2022-10-22T14:04:22.696Z,7.60
2022-10-22T14:06:50.459Z,7.68
2022-10-22T14:09:18.812Z,7.72
2022-10-22T14:11:46.582Z,8.07
2022-10-22T14:14:17.174Z,7.10
2022-10-22T14:16:45.460Z,8.82
2022-10-22T14:19:17.477Z,8.63
2022-10-22T14:21:45.752Z,7.32
2022-10-22T14:24:13.689Z,6.38
2022-10-22T14:26:41.776Z,7.28
2022-10-22T14:29:10.699Z,6.93
2022-10-22T14:31:43.821Z,13.57
2022-10-22T14:34:15.931Z,9.55
2022-10-22T14:36:44.314Z,8.52
2022-10-22T14:39:13.899Z,5.85
2022-10-22T14:41:42.750Z,6.82
2022-10-22T14:44:13.811Z,7.55
2022-10-22T14:46:44.008Z,7.05
2022-10-22T14:49:13.220Z,8.10
2022-10-22T14:51:42.172Z,8.02
2022-10-22T14:54:09.918Z,8.52
2022-10-22T14:59:10.627Z,9.98
2022-10-22T15:01:39.290Z,6.90
2022-10-22T15:04:08.647Z,7.03
2022-10-22T15:06:36.640Z,8.00
2022-10-22T15:09:05.252Z,6.35
2022-10-22T15:11:33.116Z,10.65
2022-10-22T15:14:00.914Z,6.55
2022-10-22T15:16:28.821Z,7.07
2022-10-22T15:18:57.128Z,8.80
2022-10-22T15:21:26.352Z,5.68
2022-10-22T15:23:54.276Z,8.70
2022-10-22T15:26:22.044Z,8.73
2022-10-22T15:28:50.274Z,8.15
2022-10-22T15:31:47.526Z,5.60
2022-10-22T15:34:20.304Z,9.52
2022-10-22T15:36:49.820Z,7.38
2022-10-22T15:39:18.019Z,7.20
2022-10-22T15:41:47.191Z,9.80
2022-10-22T15:44:17.677Z,6.10
2022-10-22T15:46:45.516Z,7.68
2022-10-22T15:49:14.373Z,9.25
2022-10-22T15:51:43.990Z,8.45
2022-10-22T15:54:17.167Z,8.27
2022-10-22T15:56:46.023Z,9.68
2022-10-22T15:59:16.812Z,9.40
2022-10-22T16:01:44.910Z,7.35
2022-10-22T16:04:13.037Z,7.68
2022-10-22T16:06:44.549Z,9.35
2022-10-22T16:09:18.575Z,8.13
2022-10-22T16:11:47.088Z,9.13
2022-10-22T16:14:17.421Z,8.00
2022-10-22T16:16:51.826Z,9.35
2022-10-22T16:19:22.368Z,11.60
2022-10-22T16:21:52.500Z,9.50
2022-10-22T16:24:23.145Z,9.50
2022-10-22T16:26:53.047Z,7.57
2022-10-22T16:29:20.878Z,12.25
2022-10-22T16:31:48.673Z,10.68
2022-10-22T16:34:16.497Z,10.05
2022-10-22T16:36:44.514Z,8.80
2022-10-22T16:39:12.455Z,9.77
2022-10-22T16:41:41.580Z,10.60
2022-10-22T16:44:10.264Z,12.10
2022-10-22T16:46:39.847Z,13.10
2022-10-22T16:49:07.997Z,11.25
2022-10-22T16:51:37.929Z,11.50
2022-10-22T16:54:08.401Z,6.72
2022-10-22T16:56:41.793Z,11.32
2022-10-22T16:59:09.621Z,10.88
2022-10-22T17:01:41.278Z,11.82
2022-10-22T17:04:12.686Z,9.40
2022-10-22T17:06:40.411Z,11.40
2022-10-22T17:09:08.227Z,11.77
2022-10-22T17:11:39.128Z,12.23
2022-10-22T17:14:10.867Z,10.10
2022-10-22T17:16:38.941Z,11.80
2022-10-22T17:19:06.965Z,10.43
2022-10-22T17:21:35.824Z,11.50
2022-10-22T17:24:04.205Z,10.77
2022-10-22T17:26:34.647Z,13.27
2022-10-22T17:29:03.406Z,12.60
2022-10-22T17:31:37.223Z,14.90
2022-10-22T17:34:07.569Z,15.07
2022-10-22T17:36:39.910Z,15.53
2022-10-22T17:39:08.671Z,14.83
2022-10-22T17:41:39.160Z,14.55
2022-10-22T17:44:09.506Z,15.57
2022-10-22T17:49:38.328Z,10.63
2022-10-22T17:52:06.561Z,12.27
2022-10-22T17:54:35.004Z,13.03
2022-10-22T17:57:03.036Z,12.93
2022-10-22T17:59:31.499Z,15.33
2022-10-22T18:02:03.646Z,19.87
2022-10-22T18:04:33.025Z,15.60
2022-10-22T18:07:00.965Z,15.90
2022-10-22T18:09:29.406Z,17.63
2022-10-22T18:11:57.281Z,13.70
2022-10-22T18:14:25.424Z,18.50
2022-10-22T18:16:54.684Z,16.90
2022-10-22T18:19:24.600Z,19.17
2022-10-22T18:21:52.496Z,20.13
2022-10-22T18:24:21.995Z,13.60
2022-10-22T18:26:49.872Z,16.43
2022-10-22T18:29:19.718Z,19.33
2022-10-22T18:31:48.656Z,16.60
2022-10-22T18:34:20.204Z,17.43
2022-10-22T18:36:52.245Z,18.27
2022-10-22T18:39:20.116Z,17.97
2022-10-22T18:41:48.031Z,21.47
2022-10-22T18:44:16.964Z,19.43
2022-10-22T18:46:44.933Z,19.23
2022-10-22T18:49:18.581Z,17.07
2022-10-22T18:51:48.850Z,20.17
2022-10-22T18:54:23.155Z,21.47
2022-10-22T18:56:52.565Z,20.67
2022-10-22T18:59:23.575Z,16.77
2022-10-22T19:01:52.121Z,14.47
2022-10-22T19:04:20.353Z,22.03
2022-10-22T19:06:48.202Z,22.07
2022-10-22T19:09:18.224Z,19.10
2022-10-22T19:11:47.030Z,20.63
2022-10-22T19:14:15.221Z,25.27
2022-10-22T19:16:43.525Z,21.30
2022-10-22T19:19:16.132Z,20.73
2022-10-22T19:21:44.670Z,24.03
2022-10-22T19:24:15.900Z,21.17
2022-10-22T19:26:46.733Z,24.40
2022-10-22T19:29:17.454Z,22.43
2022-10-22T19:31:45.843Z,23.17
2022-10-22T19:34:13.942Z,26.10
2022-10-22T19:36:41.865Z,19.23
2022-10-22T19:39:09.768Z,22.97
2022-10-22T19:41:37.664Z,27.87
2022-10-22T19:44:07.138Z,26.07
2022-10-22T19:46:35.017Z,24.57
2022-10-22T19:49:04.275Z,22.07
2022-10-22T19:51:34.388Z,24.93
2022-10-22T19:54:05.280Z,20.63
2022-10-22T19:56:34.731Z,23.93
2022-10-22T19:59:06.525Z,23.83
2022-10-22T20:01:35.641Z,29.07
2022-10-22T20:04:06.956Z,32.77
2022-10-22T20:06:44.436Z,25.00
2022-10-22T20:09:13.464Z,26.03
2022-10-22T20:11:41.421Z,25.30
2022-10-22T20:14:09.249Z,28.10
2022-10-22T20:16:39.139Z,29.30
2022-10-22T20:19:08.617Z,34.40
2022-10-22T20:21:37.482Z,36.33
2022-10-22T20:24:05.723Z,25.50
2022-10-22T20:26:34.339Z,37.90
2022-10-22T20:29:02.569Z,31.27
2022-10-22T20:31:30.664Z,32.37
2022-10-22T20:34:01.972Z,33.07
2022-10-22T20:36:31.550Z,29.63
2022-10-22T20:39:02.936Z,36.47
2022-10-22T20:41:31.016Z,29.87
2022-10-22T20:43:58.763Z,31.83
2022-10-22T20:46:29.436Z,33.10
2022-10-22T20:49:03.206Z,31.00
2022-10-22T20:51:31.860Z,38.23
2022-10-22T20:53:59.698Z,28.13
2022-10-22T20:56:29.665Z,30.17
2022-10-22T20:59:05.618Z,35.13
2022-10-22T21:01:38.024Z,36.63
2022-10-22T21:04:08.535Z,34.10
2022-10-22T21:06:41.345Z,36.03
2022-10-22T21:09:12.036Z,40.13
2022-10-22T21:11:43.129Z,32.70
2022-10-22T21:14:14.892Z,36.03
2022-10-22T21:16:44.258Z,35.80
2022-10-22T21:19:13.402Z,42.07
2022-10-22T21:21:41.332Z,36.03
2022-10-22T21:24:09.556Z,42.27
2022-10-22T21:26:39.001Z,36.67
2022-10-22T21:29:07.275Z,41.60
2022-10-22T21:31:35.833Z,38.30
2022-10-22T21:34:03.795Z,38.50
2022-10-22T21:36:33.308Z,43.50
2022-10-22T21:39:02.478Z,38.70
2022-10-22T21:41:30.372Z,41.43
2022-10-22T21:43:58.273Z,44.07
2022-10-22T21:46:28.669Z,44.93
2022-10-22T21:49:01.991Z,41.63
2022-10-22T21:51:33.662Z,54.93
2022-10-22T21:54:01.732Z,50.37
2022-10-22T21:56:32.850Z,38.97
2022-10-22T21:59:01.791Z,43.05
2022-10-22T22:01:30.240Z,42.65
2022-10-22T22:03:58.433Z,44.60
2022-10-22T22:06:32.048Z,48.70
2022-10-22T22:09:04.743Z,39.97
2022-10-22T22:11:32.938Z,47.77
2022-10-22T22:14:00.772Z,39.70
2022-10-22T22:16:34.893Z,42.77
2022-10-22T22:19:07.485Z,43.30
2022-10-22T22:21:39.289Z,41.77
2022-10-22T22:24:12.767Z,42.77
2022-10-22T22:26:41.739Z,41.70
2022-10-22T22:29:10.795Z,45.80
2022-10-22T22:31:40.053Z,37.73
2022-10-22T22:34:13.320Z,39.77
2022-10-22T22:36:45.521Z,38.17
2022-10-22T22:39:18.051Z,41.90
2022-10-22T22:41:46.678Z,43.10
2022-10-22T22:44:15.039Z,42.13
2022-10-22T22:46:43.277Z,45.93
2022-10-22T22:49:12.590Z,35.40
2022-10-22T22:51:40.592Z,36.67
2022-10-22T22:54:11.305Z,38.90
2022-10-22T22:56:40.926Z,37.17
2022-10-22T22:59:10.317Z,35.53
2022-10-22T23:01:41.414Z,34.60
2022-10-22T23:04:16.225Z,36.30
2022-10-22T23:06:46.484Z,33.53
2022-10-22T23:09:16.513Z,35.67
2022-10-22T23:11:47.718Z,37.47
2022-10-22T23:14:18.967Z,33.30
2022-10-22T23:16:50.631Z,31.87
2022-10-22T23:19:21.784Z,33.43
2022-10-22T23:21:54.418Z,36.37
2022-10-22T23:24:27.485Z,33.20
2022-10-22T23:27:01.646Z,29.33
2022-10-22T23:29:32.725Z,28.57
2022-10-22T23:32:02.012Z,31.70
2022-10-22T23:34:32.376Z,25.77
2022-10-22T23:37:00.722Z,23.57
2022-10-22T23:39:29.707Z,23.80
2022-10-22T23:41:59.302Z,20.47
2022-10-22T23:44:27.646Z,20.83
2022-10-22T23:46:55.706Z,20.03
2022-10-22T23:49:23.613Z,21.17
2022-10-22T23:51:51.467Z,22.17
2022-10-22T23:54:19.363Z,21.50
2022-10-22T23:56:47.358Z,20.40
2022-10-22T23:59:16.850Z,18.40
